Weather at Hadassah Heliport

Public forecast

Using degrees Celsius for public forecast. Weather courtesy of forecast.io.

Closest aviation weather report (METAR) to Hadassah Heliport

Closest report is Ben Gurion International Airport, 22.0 nm (40.8 km) NW. Retrieved 2021/10/23 13:20 UTC (0 seconds ago):

LLBG 231320Z 31013KT 9999 FEW042 26/15 Q1018 NOSIG

Closest aviation forecast (TAF) to Hadassah Heliport

Closest forecast is Ben Gurion International Airport, 22.0 nm (40.8 km) NW. Retrieved 2021/10/23 12:15 UTC (59 minutes ago):

TAF LLBG 231112Z 2312/2412 33012KT 9999 FEW050 BECMG 2316/2318 02005KT FEW040 BECMG 2321/2323 VRB03KT TEMPO 2402/2405 SCT035 BECMG 2406/2408 32010KT TX27/2312Z TN17/2404Z